createdAt,value
2017-03-12T00:01:25.448Z,88.8
2017-03-12T00:11:39.610Z,88.8
2017-03-12T00:21:53.367Z,89.2
2017-03-12T00:32:07.270Z,90
2017-03-12T00:42:20.955Z,89.6
2017-03-12T00:52:34.999Z,89.8
2017-03-12T01:02:48.119Z,90.1
2017-03-12T01:13:11.752Z,90.4
2017-03-12T01:23:17.395Z,91.1
2017-03-12T01:33:35.798Z,91.7
2017-03-12T01:43:47.093Z,91.9
2017-03-12T01:54:01.362Z,92.5
2017-03-12T02:04:17.405Z,92.9
2017-03-12T02:14:30.927Z,93.3
2017-03-12T02:24:42.865Z,93.2
2017-03-12T02:34:56.082Z,94.1
2017-03-12T02:45:12.830Z,94.1
2017-03-12T02:55:24.498Z,94.6
2017-03-12T03:05:37.951Z,95.1
2017-03-12T03:15:51.937Z,95
2017-03-12T03:26:06.583Z,94.9
2017-03-12T03:36:18.398Z,94.9
2017-03-12T03:46:32.283Z,95.7
2017-03-12T03:56:45.227Z,95.9
2017-03-12T04:06:58.510Z,96.3
2017-03-12T04:17:12.435Z,96.4
2017-03-12T04:27:26.625Z,96.7
2017-03-12T04:37:39.640Z,97
2017-03-12T04:47:52.964Z,97
2017-03-12T04:58:06.897Z,96.8
2017-03-12T05:08:21.218Z,97.2
2017-03-12T05:18:35.083Z,97.1
2017-03-12T05:28:49.254Z,97.5
2017-03-12T05:39:03.149Z,97.7
2017-03-12T05:49:16.707Z,97.2
2017-03-12T05:59:30.784Z,97.5
2017-03-12T06:09:45.615Z,97.3
2017-03-12T06:19:59.200Z,97.2
2017-03-12T06:30:12.304Z,97.2
2017-03-12T06:40:25.846Z,96.6
2017-03-12T06:50:40.748Z,96.3
2017-03-12T07:00:55.051Z,96.4
2017-03-12T07:11:16.670Z,95.3
2017-03-12T07:21:23.367Z,95.3
2017-03-12T07:31:37.750Z,94
2017-03-12T07:41:51.238Z,93.5
2017-03-12T07:52:05.374Z,93
2017-03-12T08:02:18.629Z,92.3
2017-03-12T08:12:31.816Z,90.7
2017-03-12T08:22:52.579Z,90.1
2017-03-12T08:33:01.701Z,89.3
2017-03-12T08:43:13.011Z,88.1
2017-03-12T08:53:29.360Z,87.3
2017-03-12T09:03:40.331Z,86
2017-03-12T09:13:55.326Z,85
2017-03-12T09:24:08.626Z,83.6
2017-03-12T09:34:22.086Z,82.4
2017-03-12T09:44:35.369Z,81.3
2017-03-12T09:54:52.530Z,80.3
2017-03-12T10:05:19.175Z,79.1
2017-03-12T10:15:17.539Z,78.3
2017-03-12T10:25:31.783Z,76.6
2017-03-12T10:35:48.985Z,76.5
2017-03-12T10:45:59.620Z,75.8
2017-03-12T10:56:14.544Z,74.3
2017-03-12T11:06:28.829Z,73
2017-03-12T11:16:46.939Z,72.7
2017-03-12T11:26:56.458Z,72
2017-03-12T11:37:15.254Z,71
2017-03-12T11:47:24.422Z,69.7
2017-03-12T11:57:38.943Z,69.4
2017-03-12T12:18:08.726Z,67.7
2017-03-12T12:28:23.062Z,67
2017-03-12T12:38:38.090Z,66.2
2017-03-12T12:48:51.923Z,64.8
2017-03-12T12:59:06.782Z,63.9
2017-03-12T13:09:21.865Z,63.8
2017-03-12T13:19:35.680Z,63.7
2017-03-12T13:29:49.880Z,63.2
2017-03-12T13:40:04.671Z,63.3
2017-03-12T13:50:18.834Z,63.3
2017-03-12T14:00:33.090Z,62.2
2017-03-12T14:10:47.091Z,62.1
2017-03-12T14:21:06.068Z,61.5
2017-03-12T14:31:15.948Z,61.8
2017-03-12T14:41:30.304Z,61.5
2017-03-12T14:51:44.313Z,60.7
2017-03-12T15:01:58.819Z,61.5
2017-03-12T15:12:12.283Z,61
2017-03-12T15:22:26.508Z,60.5
2017-03-12T15:32:40.178Z,60.2
2017-03-12T15:43:01.355Z,60.6
2017-03-12T15:53:08.604Z,60.2
2017-03-12T16:03:22.061Z,60.3
2017-03-12T16:13:36.953Z,60.2
2017-03-12T16:23:50.283Z,60.8
2017-03-12T16:34:07.260Z,61.3
2017-03-12T16:44:19.137Z,62.1
2017-03-12T16:54:59.926Z,63.5
2017-03-12T17:04:52.620Z,64
2017-03-12T17:15:02.972Z,64.9
2017-03-12T17:25:17.604Z,65.1
2017-03-12T17:35:32.667Z,65.8
2017-03-12T17:45:46.111Z,66.9
2017-03-12T17:56:00.086Z,67.1
2017-03-12T18:06:14.514Z,67.7
2017-03-12T18:16:28.074Z,67.8
2017-03-12T18:26:41.207Z,68.5
2017-03-12T18:36:55.993Z,69.1
2017-03-12T18:47:09.859Z,69.4
2017-03-12T18:57:24.924Z,70.2
2017-03-12T19:07:39.445Z,70.6
2017-03-12T19:17:53.097Z,71.2
2017-03-12T19:28:07.327Z,72.2
2017-03-12T19:38:22.121Z,72.9
2017-03-12T19:48:35.195Z,73.3
2017-03-12T19:58:48.369Z,73.9
2017-03-12T20:09:03.014Z,74.6
2017-03-12T20:19:16.285Z,75
2017-03-12T20:29:30.777Z,76
2017-03-12T20:39:45.087Z,76.9
2017-03-12T20:49:59.537Z,76.5
2017-03-12T21:00:13.571Z,76.8
2017-03-12T21:10:27.156Z,77.3
2017-03-12T21:20:41.957Z,77.4
2017-03-12T21:30:55.288Z,78.1
2017-03-12T21:41:08.696Z,78.3
2017-03-12T21:51:23.123Z,78.7
2017-03-12T22:01:38.007Z,79.3
2017-03-12T22:11:52.362Z,79.7
2017-03-12T22:22:06.672Z,79.7
2017-03-12T22:32:19.786Z,81.3
2017-03-12T22:42:34.325Z,81.7
2017-03-12T22:52:49.313Z,81.9
2017-03-12T23:03:04.441Z,82.7
2017-03-12T23:13:18.844Z,83.1
2017-03-12T23:23:32.033Z,83.3
2017-03-12T23:33:46.694Z,83.7
2017-03-12T23:44:00.898Z,84.3
2017-03-12T23:54:14.464Z,85
